createdAt,value
2023-02-04T00:02:11.539Z,14.40
2023-02-04T00:04:59.387Z,18.67
2023-02-04T00:07:50.674Z,19.40
2023-02-04T00:10:39.579Z,14.93
2023-02-04T00:13:27.464Z,16.63
2023-02-04T00:16:15.148Z,19.73
2023-02-04T00:19:03.475Z,20.30
2023-02-04T00:21:51.001Z,18.42
2023-02-04T00:24:39.082Z,22.65
2023-02-04T00:27:26.796Z,24.13
2023-02-04T00:30:15.077Z,17.67
2023-02-04T00:33:04.882Z,18.40
2023-02-04T00:35:52.676Z,17.90
2023-02-04T00:38:40.186Z,18.73
2023-02-04T00:41:27.724Z,19.90
2023-02-04T00:44:15.330Z,18.10
2023-02-04T00:47:03.275Z,23.48
2023-02-04T00:49:50.987Z,13.23
2023-02-04T00:52:38.471Z,14.98
2023-02-04T00:55:25.917Z,19.85
2023-02-04T00:58:13.482Z,11.43
2023-02-04T01:01:01.325Z,15.55
2023-02-04T01:03:49.158Z,19.05
2023-02-04T01:06:37.304Z,20.02
2023-02-04T01:09:25.552Z,16.05
2023-02-04T01:12:13.083Z,16.17
2023-02-04T01:15:00.709Z,18.95
2023-02-04T01:17:48.208Z,20.42
2023-02-04T01:20:35.664Z,20.30
2023-02-04T01:23:23.217Z,17.60
2023-02-04T01:26:10.663Z,15.40
2023-02-04T01:28:58.160Z,14.57
2023-02-04T01:31:45.822Z,23.88
2023-02-04T01:34:33.414Z,18.20
2023-02-04T01:37:20.873Z,16.45
2023-02-04T01:40:09.466Z,14.50
2023-02-04T01:42:57.078Z,18.08
2023-02-04T01:45:46.034Z,19.55
2023-02-04T01:48:33.795Z,13.55
2023-02-04T01:51:28.251Z,14.77
2023-02-04T01:54:17.930Z,17.50
2023-02-04T01:57:10.247Z,20.33
2023-02-04T01:59:57.902Z,21.23
2023-02-04T02:02:51.627Z,20.38
2023-02-04T02:05:51.335Z,20.25
2023-02-04T02:08:39.166Z,18.65
2023-02-04T02:11:27.722Z,17.08
2023-02-04T02:14:16.109Z,22.67
2023-02-04T02:17:03.873Z,20.27
2023-02-04T02:20:17.684Z,19.38
2023-02-04T02:23:15.913Z,15.67
2023-02-04T02:26:03.495Z,18.65
2023-02-04T02:28:51.464Z,22.38
2023-02-04T02:31:39.261Z,20.75
2023-02-04T02:34:28.435Z,21.25
2023-02-04T02:37:16.036Z,21.88
2023-02-04T02:40:05.201Z,21.77
2023-02-04T02:42:53.858Z,13.98
2023-02-04T02:45:41.384Z,19.67
2023-02-04T02:48:28.863Z,23.80
2023-02-04T02:51:16.309Z,23.27
2023-02-04T02:54:03.844Z,26.02
2023-02-04T02:56:52.231Z,20.40
2023-02-04T02:59:40.081Z,21.20
2023-02-04T03:02:27.659Z,16.40
2023-02-04T03:05:15.504Z,14.05
2023-02-04T03:08:04.263Z,21.77
2023-02-04T03:10:51.913Z,19.13
2023-02-04T03:13:40.834Z,19.85
2023-02-04T03:16:30.834Z,25.20
2023-02-04T03:19:18.383Z,20.77
2023-02-04T03:22:07.220Z,26.55
2023-02-04T03:24:54.835Z,12.90
2023-02-04T03:27:43.404Z,26.73
2023-02-04T03:30:31.912Z,28.17
2023-02-04T03:33:19.711Z,18.88
2023-02-04T03:36:07.856Z,24.20
2023-02-04T03:38:56.926Z,21.30
2023-02-04T03:41:44.976Z,20.98
2023-02-04T03:44:32.678Z,21.80
2023-02-04T03:47:20.177Z,19.02
2023-02-04T03:50:08.362Z,21.48
2023-02-04T03:52:56.024Z,27.70
2023-02-04T03:55:43.818Z,27.83
2023-02-04T03:58:31.885Z,31.17
2023-02-04T04:01:19.625Z,14.82
2023-02-04T04:04:07.410Z,24.67
2023-02-04T04:06:55.510Z,23.70
2023-02-04T04:09:43.320Z,29.55
2023-02-04T04:12:31.051Z,28.95
2023-02-04T04:15:19.299Z,19.35
2023-02-04T04:18:06.881Z,21.27
2023-02-04T04:20:54.686Z,22.35
2023-02-04T04:23:42.526Z,26.77
2023-02-04T04:26:30.227Z,24.90
2023-02-04T04:29:17.765Z,30.42
2023-02-04T04:32:05.667Z,22.85
2023-02-04T04:34:53.251Z,23.58
2023-02-04T04:37:40.731Z,32.42
2023-02-04T04:40:28.389Z,29.30
2023-02-04T04:43:15.958Z,23.35
2023-02-04T04:46:03.398Z,28.17
2023-02-04T04:48:50.871Z,18.88
2023-02-04T04:51:38.361Z,27.15
2023-02-04T04:54:26.167Z,30.20
2023-02-04T04:57:13.881Z,24.17
2023-02-04T05:00:01.541Z,24.55
2023-02-04T05:02:49.205Z,27.05
2023-02-04T05:05:40.135Z,27.35
2023-02-04T05:08:27.656Z,32.00
2023-02-04T05:11:15.213Z,26.38
2023-02-04T05:14:02.925Z,27.77
2023-02-04T05:16:50.722Z,22.77
2023-02-04T05:19:38.393Z,32.35
2023-02-04T05:22:26.002Z,34.05
2023-02-04T05:25:13.822Z,25.05
2023-02-04T05:28:01.347Z,30.30
2023-02-04T05:30:48.935Z,24.40
2023-02-04T05:33:36.495Z,19.80
2023-02-04T05:36:26.592Z,35.10
2023-02-04T05:39:14.329Z,28.30
2023-02-04T05:42:02.159Z,34.88
2023-02-04T05:44:49.937Z,23.92
2023-02-04T05:47:37.536Z,29.10
2023-02-04T05:50:25.150Z,33.67
2023-02-04T05:53:12.792Z,30.67
2023-02-04T05:56:00.507Z,36.97
2023-02-04T05:58:48.101Z,25.30
2023-02-04T06:01:36.268Z,38.47
2023-02-04T06:04:24.142Z,29.48
2023-02-04T06:07:11.918Z,24.95
2023-02-04T06:10:00.563Z,37.75
2023-02-04T06:12:49.090Z,22.05
2023-02-04T06:15:36.989Z,31.55
2023-02-04T06:18:24.793Z,25.55
2023-02-04T06:21:12.404Z,21.90
2023-02-04T06:24:00.696Z,32.40
2023-02-04T06:26:48.317Z,26.90
2023-02-04T06:29:35.956Z,27.27
2023-02-04T06:32:23.671Z,29.88
2023-02-04T06:35:13.230Z,41.20
2023-02-04T06:38:01.531Z,31.98
2023-02-04T06:40:54.027Z,28.95
2023-02-04T06:43:42.292Z,33.67
2023-02-04T06:46:30.465Z,34.75
2023-02-04T06:49:24.520Z,28.08
2023-02-04T06:52:17.172Z,29.90
2023-02-04T06:55:05.558Z,28.40
2023-02-04T06:58:07.396Z,28.48
2023-02-04T07:00:55.258Z,29.85
2023-02-04T07:03:45.199Z,31.73
2023-02-04T07:06:35.747Z,25.92
2023-02-04T07:12:44.348Z,36.92
2023-02-04T07:18:49.638Z,34.50
2023-02-04T07:24:23.985Z,37.22
2023-02-04T07:27:12.304Z,29.02
2023-02-04T07:29:59.970Z,43.88
2023-02-04T07:32:47.759Z,30.13
2023-02-04T07:35:38.309Z,36.42
2023-02-04T07:38:25.814Z,32.13
2023-02-04T07:41:13.621Z,38.28
2023-02-04T07:44:02.989Z,32.10
2023-02-04T07:46:50.909Z,37.78
2023-02-04T07:49:41.289Z,30.40
2023-02-04T07:52:33.198Z,34.63
2023-02-04T07:55:21.289Z,29.23
2023-02-04T07:58:12.229Z,41.55
2023-02-04T08:01:01.339Z,29.15
2023-02-04T08:03:52.039Z,27.80
2023-02-04T08:06:43.190Z,29.30
2023-02-04T08:09:32.936Z,31.75
2023-02-04T08:12:23.669Z,27.35
2023-02-04T08:15:14.260Z,26.45
2023-02-04T08:18:04.689Z,34.92
2023-02-04T08:20:55.316Z,26.70
2023-02-04T08:23:53.616Z,31.90
2023-02-04T08:26:45.420Z,24.48
2023-02-04T08:29:33.699Z,33.72
2023-02-04T08:32:25.110Z,28.27
2023-02-04T08:35:18.464Z,32.55
2023-02-04T08:38:17.574Z,29.33
2023-02-04T08:41:10.881Z,28.20
2023-02-04T08:44:14.897Z,31.00
2023-02-04T08:47:08.310Z,32.35
2023-02-04T08:50:16.496Z,41.88
2023-02-04T09:00:55.397Z,33.03
2023-02-04T09:03:43.761Z,25.42
2023-02-04T09:06:31.929Z,29.42
2023-02-04T09:09:43.356Z,27.83
2023-02-04T09:12:54.111Z,25.58
2023-02-04T09:16:43.331Z,31.52
2023-02-04T09:22:13.536Z,26.45
2023-02-04T09:25:01.378Z,22.52
2023-02-04T09:27:49.337Z,21.20
2023-02-04T09:30:40.591Z,25.20
2023-02-04T09:33:28.759Z,19.83
2023-02-04T09:36:16.535Z,24.40
2023-02-04T09:39:06.875Z,31.00
2023-02-04T09:41:55.451Z,22.98
2023-02-04T09:44:45.894Z,19.08
2023-02-04T09:47:34.195Z,22.13
2023-02-04T09:50:25.780Z,20.38
2023-02-04T09:53:22.920Z,25.23
2023-02-04T09:56:12.015Z,25.95
2023-02-04T09:58:59.971Z,17.05
2023-02-04T10:02:02.075Z,22.02
2023-02-04T10:04:52.722Z,25.95
2023-02-04T10:07:40.884Z,27.95
2023-02-04T10:10:29.040Z,30.98
2023-02-04T10:13:21.713Z,26.52
2023-02-04T10:16:24.178Z,26.30
2023-02-04T10:19:16.481Z,29.73
2023-02-04T10:22:11.057Z,26.17
2023-02-04T10:25:02.155Z,26.42
2023-02-04T10:27:58.401Z,23.08
2023-02-04T10:30:47.485Z,25.08
2023-02-04T10:33:37.414Z,20.48
2023-02-04T10:36:25.128Z,20.50
2023-02-04T10:39:19.473Z,14.80
2023-02-04T10:42:07.257Z,21.05
2023-02-04T10:44:56.118Z,14.15
2023-02-04T10:47:52.771Z,17.00
2023-02-04T10:50:41.242Z,13.10
2023-02-04T10:53:48.145Z,12.20
2023-02-04T11:07:25.780Z,20.13
2023-02-04T11:10:16.473Z,16.33
2023-02-04T11:13:07.178Z,14.38
2023-02-04T11:16:19.781Z,19.00
2023-02-04T11:21:28.363Z,13.30
2023-02-04T11:27:14.782Z,11.32
2023-02-04T11:30:08.685Z,17.00
2023-02-04T11:33:05.674Z,14.65
2023-02-04T11:36:12.720Z,15.30
2023-02-04T11:39:14.670Z,16.17
2023-02-04T11:42:14.793Z,19.25
2023-02-04T11:45:14.351Z,12.73
2023-02-04T11:48:20.434Z,14.38
2023-02-04T11:51:16.933Z,9.90
2023-02-04T11:54:08.390Z,15.68
2023-02-04T11:57:02.665Z,16.05
2023-02-04T11:59:50.393Z,13.43
2023-02-04T12:02:48.255Z,21.05
2023-02-04T12:05:41.630Z,15.82
2023-02-04T12:08:37.609Z,16.20
2023-02-04T12:11:27.596Z,15.35
2023-02-04T12:14:19.354Z,15.57
2023-02-04T12:17:21.153Z,14.52
2023-02-04T12:23:15.394Z,13.63
2023-02-04T12:26:19.708Z,14.93
2023-02-04T12:29:07.396Z,13.73
2023-02-04T12:32:34.729Z,13.05
2023-02-04T12:35:23.802Z,12.07
2023-02-04T12:38:20.759Z,16.73
2023-02-04T12:41:08.834Z,16.95
2023-02-04T12:43:59.507Z,11.65
2023-02-04T12:46:49.786Z,16.00
2023-02-04T12:49:40.419Z,10.75
2023-02-04T12:52:38.154Z,15.00
2023-02-04T12:56:08.666Z,15.38
2023-02-04T13:11:00.090Z,13.55
2023-02-04T13:13:48.317Z,16.65
2023-02-04T13:16:36.375Z,14.65
2023-02-04T13:19:24.380Z,16.73
2023-02-04T13:22:13.343Z,11.30
2023-02-04T13:25:05.783Z,19.08
2023-02-04T13:27:53.856Z,20.15
2023-02-04T13:30:44.358Z,12.82
2023-02-04T13:33:33.185Z,15.35
2023-02-04T13:36:28.819Z,13.93
2023-02-04T13:39:17.308Z,16.60
2023-02-04T13:42:07.403Z,12.27
2023-02-04T13:44:56.640Z,29.98
2023-02-04T13:47:45.637Z,15.60
2023-02-04T13:50:34.250Z,19.92
2023-02-04T13:53:22.878Z,19.67
2023-02-04T13:56:11.066Z,11.88
2023-02-04T13:59:00.312Z,13.45
2023-02-04T14:01:48.175Z,17.13
2023-02-04T14:04:39.390Z,18.13
2023-02-04T14:07:27.637Z,14.48
2023-02-04T14:10:17.273Z,21.02
2023-02-04T14:13:05.084Z,19.85
2023-02-04T14:15:53.196Z,16.00
2023-02-04T14:18:51.569Z,15.45
2023-02-04T14:21:44.026Z,16.52
2023-02-04T14:24:38.552Z,15.85
2023-02-04T14:27:27.793Z,16.95
2023-02-04T14:30:27.285Z,15.30
2023-02-04T14:33:18.691Z,14.50
2023-02-04T14:36:07.138Z,14.60
2023-02-04T14:38:58.784Z,15.27
2023-02-04T14:41:46.690Z,13.27
2023-02-04T14:44:40.985Z,17.17
2023-02-04T14:47:29.993Z,13.85
2023-02-04T14:50:18.098Z,14.55
2023-02-04T14:53:12.538Z,12.95
2023-02-04T14:56:01.123Z,16.83
2023-02-04T14:58:48.975Z,19.08
2023-02-04T15:01:36.955Z,13.10
2023-02-04T15:04:28.784Z,14.13
2023-02-04T15:07:36.160Z,16.45
2023-02-04T15:10:25.350Z,15.10
2023-02-04T15:13:15.540Z,11.07
2023-02-04T15:16:05.473Z,12.32
2023-02-04T15:18:53.679Z,16.52
2023-02-04T15:21:42.208Z,17.10
2023-02-04T15:24:30.495Z,16.60
2023-02-04T15:27:18.939Z,18.73
2023-02-04T15:30:07.588Z,14.68
2023-02-04T15:32:57.827Z,18.48
2023-02-04T15:35:48.681Z,16.27
2023-02-04T15:38:39.381Z,18.80
2023-02-04T15:41:27.688Z,18.05
2023-02-04T15:44:17.045Z,16.00
2023-02-04T15:47:06.514Z,18.70
2023-02-04T15:49:55.327Z,19.60
2023-02-04T15:52:43.534Z,15.35
2023-02-04T15:55:43.397Z,10.65
2023-02-04T15:58:32.569Z,12.30
2023-02-04T16:01:21.791Z,21.88
2023-02-04T16:04:10.158Z,9.05
2023-02-04T16:07:01.586Z,15.98
2023-02-04T16:09:49.963Z,15.43
2023-02-04T16:12:38.004Z,15.23
2023-02-04T16:15:48.410Z,12.95
2023-02-04T16:18:36.378Z,13.73
2023-02-04T16:21:27.801Z,16.15
2023-02-04T16:24:18.885Z,14.15
2023-02-04T16:27:07.327Z,11.45
2023-02-04T16:29:56.931Z,16.13
2023-02-04T16:32:45.836Z,21.73
2023-02-04T16:35:58.709Z,14.75
2023-02-04T16:38:46.960Z,13.50
2023-02-04T16:41:35.245Z,12.52
2023-02-04T16:44:23.403Z,15.40
2023-02-04T16:47:14.077Z,11.88
2023-02-04T16:50:05.061Z,14.52
2023-02-04T16:52:52.979Z,14.60
2023-02-04T16:55:42.509Z,14.43
2023-02-04T16:58:30.709Z,13.70
2023-02-04T17:01:18.636Z,13.93
2023-02-04T17:04:06.455Z,15.73
2023-02-04T17:06:54.768Z,17.50
2023-02-04T17:09:42.480Z,12.02
2023-02-04T17:12:30.209Z,11.95
2023-02-04T17:15:20.371Z,19.77
2023-02-04T17:18:08.668Z,11.93
2023-02-04T17:20:56.589Z,11.40
2023-02-04T17:23:45.522Z,14.23
2023-02-04T17:26:38.135Z,10.77
2023-02-04T17:29:29.637Z,13.43
2023-02-04T17:32:17.382Z,12.10
2023-02-04T17:35:05.338Z,12.57
2023-02-04T17:37:54.222Z,18.25
2023-02-04T17:40:43.114Z,10.90
2023-02-04T17:44:15.032Z,10.07
2023-02-04T17:47:18.469Z,13.68
2023-02-04T17:50:19.211Z,16.70
2023-02-04T17:53:19.938Z,15.48
2023-02-04T17:56:14.012Z,11.88
2023-02-04T18:01:51.128Z,8.07
2023-02-04T18:04:55.064Z,14.82
2023-02-04T18:07:48.244Z,12.82
2023-02-04T18:10:40.856Z,15.55
2023-02-04T18:13:44.042Z,17.60
2023-02-04T18:16:37.612Z,11.43
2023-02-04T18:19:38.744Z,13.88
2023-02-04T18:22:28.905Z,12.32
2023-02-04T18:25:21.338Z,11.65
2023-02-04T18:28:19.311Z,8.73
2023-02-04T18:31:29.375Z,12.10
2023-02-04T18:34:26.936Z,10.05
2023-02-04T18:37:39.619Z,13.75
2023-02-04T18:40:36.258Z,9.02
2023-02-04T18:43:29.600Z,11.95
2023-02-04T18:46:29.417Z,6.45
2023-02-04T18:49:27.040Z,10.52
2023-02-04T18:52:24.005Z,10.82
2023-02-04T18:55:36.571Z,10.40
2023-02-04T18:58:39.741Z,13.43
2023-02-04T19:01:28.114Z,13.00
2023-02-04T19:04:24.189Z,10.93
2023-02-04T19:07:15.728Z,12.75
2023-02-04T19:10:32.776Z,9.23
2023-02-04T19:13:38.700Z,12.80
2023-02-04T19:16:37.339Z,10.20
2023-02-04T19:23:14.110Z,9.88
2023-02-04T19:26:02.249Z,8.98
2023-02-04T19:28:51.740Z,11.15
2023-02-04T19:31:41.890Z,9.35
2023-02-04T19:34:34.342Z,11.98
2023-02-04T19:37:28.840Z,7.95
2023-02-04T19:40:35.559Z,10.68
2023-02-04T19:43:36.504Z,8.07
2023-02-04T19:46:28.245Z,11.15
2023-02-04T19:49:28.981Z,10.90
2023-02-04T19:52:30.461Z,10.32
2023-02-04T19:55:44.557Z,8.27
2023-02-04T19:58:45.057Z,14.93
2023-02-04T20:01:34.110Z,13.20
2023-02-04T20:04:22.172Z,8.80
2023-02-04T20:07:20.320Z,10.85
2023-02-04T20:10:08.570Z,10.00
2023-02-04T20:13:01.101Z,11.43
2023-02-04T20:15:51.145Z,8.05
2023-02-04T20:18:41.997Z,12.10
2023-02-04T20:21:29.867Z,8.30
2023-02-04T20:24:20.473Z,12.15
2023-02-04T20:27:41.954Z,8.50
2023-02-04T20:30:31.152Z,9.63
2023-02-04T20:33:37.069Z,9.38
2023-02-04T20:36:38.340Z,9.50
2023-02-04T20:39:35.691Z,6.65
2023-02-04T20:44:54.495Z,11.02
2023-02-04T20:47:42.164Z,10.43
2023-02-04T20:50:39.327Z,10.32
2023-02-04T20:53:29.822Z,10.75
2023-02-04T20:56:28.217Z,9.60
2023-02-04T20:59:16.066Z,11.35
2023-02-04T21:02:17.714Z,9.10
2023-02-04T21:05:24.629Z,12.80
2023-02-04T21:08:29.806Z,10.40
2023-02-04T21:11:17.704Z,9.50
2023-02-04T21:14:05.252Z,13.55
2023-02-04T21:16:54.999Z,14.63
2023-02-04T21:19:42.684Z,18.00
2023-02-04T21:22:30.443Z,13.25
2023-02-04T21:25:18.292Z,10.27
2023-02-04T21:28:06.658Z,13.75
2023-02-04T21:30:54.550Z,15.75
2023-02-04T21:33:42.143Z,18.38
2023-02-04T21:36:29.978Z,15.25
2023-02-04T21:39:17.839Z,15.15
2023-02-04T21:42:20.850Z,17.90
2023-02-04T21:45:08.841Z,14.95
2023-02-04T21:47:56.683Z,13.25
2023-02-04T21:51:10.514Z,12.65
2023-02-04T21:54:00.136Z,18.17
2023-02-04T21:56:50.266Z,13.88
2023-02-04T21:59:43.062Z,13.38
2023-02-04T22:05:33.213Z,20.00
2023-02-04T22:08:21.366Z,15.40
2023-02-04T22:11:09.085Z,14.75
2023-02-04T22:13:57.008Z,12.82
2023-02-04T22:16:47.575Z,16.80
2023-02-04T22:19:38.620Z,17.70
2023-02-04T22:22:26.645Z,18.30
2023-02-04T22:25:24.198Z,13.90
2023-02-04T22:28:18.004Z,13.98
2023-02-04T22:31:06.264Z,15.70
2023-02-04T22:33:57.510Z,11.73
2023-02-04T22:36:45.256Z,10.23
2023-02-04T22:39:33.442Z,11.93
2023-02-04T22:42:21.225Z,15.40
2023-02-04T22:45:10.475Z,12.65
2023-02-04T22:47:58.295Z,11.23
2023-02-04T22:50:46.279Z,14.93
2023-02-04T22:53:34.416Z,12.63
2023-02-04T22:56:22.066Z,12.85
2023-02-04T22:59:09.937Z,19.17
2023-02-04T23:01:57.932Z,15.80
2023-02-04T23:04:45.986Z,13.57
2023-02-04T23:07:33.928Z,15.93
2023-02-04T23:10:24.693Z,14.23
2023-02-04T23:13:12.954Z,15.20
2023-02-04T23:16:01.367Z,16.02
2023-02-04T23:18:49.485Z,13.80
2023-02-04T23:21:37.510Z,11.50
2023-02-04T23:24:29.008Z,11.18
2023-02-04T23:27:17.265Z,15.98
2023-02-04T23:30:06.619Z,18.67
2023-02-04T23:32:54.479Z,14.18
2023-02-04T23:35:42.507Z,17.45
2023-02-04T23:38:31.445Z,11.50
2023-02-04T23:41:19.530Z,17.52
2023-02-04T23:44:07.292Z,13.38
2023-02-04T23:46:55.316Z,16.52
2023-02-04T23:49:43.042Z,14.05
2023-02-04T23:52:30.973Z,19.92
2023-02-04T23:55:18.785Z,12.82
2023-02-04T23:58:06.865Z,15.63
